Claunch, New Mexico
Current Conditions -  °F | °C
As of 7:55 PM on Monday 20 Oct 2014 (Local Time) from KONM Reporting Station
Overcast Overcast  
Wind Chill: 58°   Ceiling: 8500
Heat Index: 58°   Visibility: 10mi
Dew Point: 51°   Wind: 7mph
Humidity: 76%   Direction: 230°SW
Pressure: 30.13"   Gusts: NA
Location:  34.14°N, 106°W
Report Text: KONM 210155Z AUTO 23006KT 10SM SCT075 BKN085 OVC110 15/10 A3013 RMK AO2 LTG DSNT NE T01450103
Loading
Personal Weather Stations






























Interactive Weather Map
Tropical Storm Tracking
New forecast layout! Learn more

10-Day Weather Forecast

Advertisements
Track Severe Weather on mobile